Time;durP1;ratioP1;P1;durP2;ratioP2;P2;SDS_P1;SDS_P2;PMS_P1;PMS_P2;Temp;Humidity;BMP_temperature;BMP_pressure;BME280_temperature;BME280_humidity;BME280_pressure;Samples;Min_cycle;Max_cycle;Signal;HPM_P1;HPM_P2
2023/07/25 00:00:30;;;;;;;5.23;3.23;;;15.40;99.90;;;;;;5061624;28;20242;-72
2023/07/25 00:02:56;;;;;;;3.70;2.90;;;15.30;99.90;;;;;;5058302;28;20177;-72
2023/07/25 00:05:22;;;;;;;4.73;3.10;;;15.30;99.90;;;;;;5064853;28;20189;-72
2023/07/25 00:07:48;;;;;;;6.33;3.60;;;15.30;99.90;;;;;;5069701;28;20490;-72
2023/07/25 00:10:13;;;;;;;4.07;3.67;;;15.40;99.90;;;;;;5064255;28;20212;-72
2023/07/25 00:12:39;;;;;;;5.17;3.67;;;15.40;99.90;;;;;;5067781;28;20177;-72
2023/07/25 00:15:06;;;;;;;4.00;3.60;;;15.40;99.90;;;;;;5059900;28;20182;-72
2023/07/25 00:17:31;;;;;;;5.23;3.87;;;15.40;99.90;;;;;;5066151;28;20438;-72
2023/07/25 00:19:57;;;;;;;5.00;3.57;;;15.40;99.90;;;;;;5066847;28;21264;-72
2023/07/25 00:22:23;;;;;;;5.03;4.03;;;15.40;99.90;;;;;;5064851;28;20714;-72
2023/07/25 00:24:49;;;;;;;4.67;3.33;;;15.40;99.90;;;;;;5063477;28;20208;-73
2023/07/25 00:27:15;;;;;;;6.93;4.10;;;15.40;99.90;;;;;;5064962;28;20558;-72
2023/07/25 00:29:40;;;;;;;3.93;3.53;;;15.50;99.90;;;;;;5071063;28;20451;-72
2023/07/25 00:32:06;;;;;;;4.10;3.67;;;15.50;99.90;;;;;;5063323;28;20411;-72
2023/07/25 00:34:32;;;;;;;5.00;3.63;;;15.50;99.90;;;;;;5064711;28;20177;-72
2023/07/25 00:36:58;;;;;;;8.50;4.10;;;15.50;99.90;;;;;;5060509;28;20803;-72
2023/07/25 00:39:23;;;;;;;4.87;4.40;;;15.50;99.90;;;;;;5065067;28;20215;-72
2023/07/25 00:41:49;;;;;;;4.90;4.00;;;15.50;99.90;;;;;;5067669;28;20808;-72
2023/07/25 00:44:15;;;;;;;5.03;3.80;;;15.50;99.90;;;;;;5062133;28;20224;-72
2023/07/25 00:46:42;;;;;;;6.10;4.43;;;15.50;99.90;;;;;;5066627;28;20193;-72
2023/07/25 00:49:07;;;;;;;6.80;5.07;;;15.40;99.90;;;;;;5060157;28;20241;-72
2023/07/25 00:51:34;;;;;;;5.13;4.20;;;15.50;99.90;;;;;;5065127;28;20412;-72
2023/07/25 00:54:00;;;;;;;6.80;4.37;;;15.50;99.90;;;;;;5066130;28;20173;-72
2023/07/25 00:56:26;;;;;;;4.50;4.10;;;15.50;99.90;;;;;;5064346;28;20435;-72
2023/07/25 00:58:53;;;;;;;4.83;4.20;;;15.50;99.90;;;;;;5063677;28;20447;-72
2023/07/25 01:01:19;;;;;;;5.93;3.93;;;15.50;99.90;;;;;;5063557;28;20423;-72
2023/07/25 01:03:45;;;;;;;8.50;4.23;;;15.50;99.90;;;;;;5061692;28;20465;-72
2023/07/25 01:06:15;;;;;;;8.63;4.97;;;15.50;99.90;;;;;;5063665;28;20440;-72
2023/07/25 01:08:55;;;;;;;7.37;4.27;;;15.50;99.90;;;;;;5069651;28;20251;-72
2023/07/25 01:11:22;;;;;;;5.73;4.27;;;15.40;99.90;;;;;;5061115;28;20423;-72
2023/07/25 01:13:49;;;;;;;5.17;3.97;;;15.40;99.90;;;;;;5064556;28;20416;-73
2023/07/25 01:16:17;;;;;;;5.17;4.23;;;15.40;99.90;;;;;;5058101;28;20516;-72
2023/07/25 01:18:44;;;;;;;5.17;4.20;;;15.50;99.90;;;;;;5063462;28;20419;-72
2023/07/25 01:21:11;;;;;;;6.93;4.50;;;15.40;99.90;;;;;;5064517;28;20511;-72
2023/07/25 01:23:38;;;;;;;4.70;4.00;;;15.40;99.90;;;;;;5062577;28;20534;-72
2023/07/25 01:26:04;;;;;;;7.20;4.93;;;15.40;99.90;;;;;;5062016;28;20459;-72
2023/07/25 01:28:29;;;;;;;4.80;3.83;;;15.40;99.90;;;;;;5061190;28;20495;-72
2023/07/25 01:30:56;;;;;;;7.17;4.00;;;15.30;99.90;;;;;;5067742;28;20928;-73
2023/07/25 01:33:22;;;;;;;4.70;4.10;;;15.30;99.90;;;;;;5068316;28;20169;-72
2023/07/25 01:35:48;;;;;;;5.90;3.77;;;15.30;99.90;;;;;;5058847;28;20412;-73
2023/07/25 01:38:14;;;;;;;4.20;3.80;;;15.30;99.90;;;;;;5065586;28;20493;-72
2023/07/25 01:40:40;;;;;;;6.33;3.60;;;15.40;99.90;;;;;;5063548;28;20187;-72
2023/07/25 01:43:06;;;;;;;7.70;4.03;;;15.40;99.90;;;;;;5065919;28;20189;-72
2023/07/25 01:45:31;;;;;;;6.77;3.70;;;15.40;99.90;;;;;;5062280;28;20911;-72
2023/07/25 01:47:59;;;;;;;5.67;3.07;;;15.50;99.90;;;;;;5064280;28;20458;-72
2023/07/25 01:50:28;;;;;;;5.80;3.40;;;15.50;99.90;;;;;;5058735;28;20212;-73
2023/07/25 01:52:54;;;;;;;6.63;3.80;;;15.50;99.90;;;;;;5063416;28;20411;-73
2023/07/25 01:55:20;;;;;;;3.63;3.30;;;15.50;99.90;;;;;;5064254;28;20411;-72
2023/07/25 01:57:46;;;;;;;4.93;3.97;;;15.50;99.90;;;;;;5061118;28;20489;-72
2023/07/25 02:00:12;;;;;;;9.23;4.00;;;15.50;99.90;;;;;;5062686;28;20928;-72
2023/07/25 02:02:38;;;;;;;5.10;3.77;;;15.50;99.90;;;;;;5061088;28;20189;-71
2023/07/25 02:05:04;;;;;;;4.67;3.93;;;15.40;99.90;;;;;;5059503;28;20941;-72
2023/07/25 02:07:30;;;;;;;6.07;4.37;;;15.40;99.90;;;;;;5068127;28;20209;-72
2023/07/25 02:09:56;;;;;;;5.33;4.23;;;15.40;99.90;;;;;;5062507;28;20477;-72
2023/07/25 02:12:22;;;;;;;4.90;4.17;;;15.40;99.90;;;;;;5066916;28;20685;-72
2023/07/25 02:14:48;;;;;;;4.30;3.90;;;15.40;99.90;;;;;;5057063;28;20178;-71
2023/07/25 02:17:13;;;;;;;5.10;4.33;;;15.40;99.90;;;;;;5067281;28;20926;-72
2023/07/25 02:19:39;;;;;;;5.83;4.67;;;15.50;99.90;;;;;;5062460;28;20260;-72
2023/07/25 02:22:06;;;;;;;6.30;4.40;;;15.50;99.90;;;;;;5064983;28;20173;-72
2023/07/25 02:24:31;;;;;;;6.37;3.87;;;15.40;99.90;;;;;;5058150;28;20189;-72
2023/07/25 02:26:57;;;;;;;4.70;3.93;;;15.30;99.90;;;;;;5063155;28;20435;-72
2023/07/25 02:29:23;;;;;;;4.90;4.20;;;15.30;99.90;;;;;;5061147;28;20185;-72
2023/07/25 02:31:49;;;;;;;5.53;3.77;;;15.30;99.90;;;;;;5062818;28;20513;-72
2023/07/25 02:34:15;;;;;;;5.20;3.87;;;15.20;99.90;;;;;;5063416;28;20190;-72
2023/07/25 02:36:42;;;;;;;4.53;4.10;;;15.20;99.90;;;;;;5061301;28;20231;-72
2023/07/25 02:39:08;;;;;;;7.93;4.20;;;15.20;99.90;;;;;;5061346;28;20428;-71
2023/07/25 02:41:35;;;;;;;6.00;4.27;;;15.10;99.90;;;;;;5068586;28;20488;-72
2023/07/25 02:44:01;;;;;;;6.50;4.20;;;15.10;99.90;;;;;;5058064;28;20524;-72
2023/07/25 02:46:26;;;;;;;5.67;3.90;;;15.00;99.90;;;;;;5067862;28;20885;-72
2023/07/25 02:48:52;;;;;;;5.27;4.20;;;15.00;99.90;;;;;;5057218;28;21004;-72
2023/07/25 02:51:18;;;;;;;5.00;4.00;;;15.00;99.90;;;;;;5064311;28;20535;-71
2023/07/25 02:53:44;;;;;;;7.60;4.40;;;15.00;99.90;;;;;;5060447;28;20177;-71
2023/07/25 02:56:10;;;;;;;6.70;3.80;;;15.00;99.90;;;;;;5063939;28;20540;-71
2023/07/25 02:58:35;;;;;;;6.43;3.70;;;15.00;99.90;;;;;;5058936;28;20427;-71
2023/07/25 03:01:02;;;;;;;4.33;3.83;;;15.00;99.90;;;;;;5061833;28;20423;-71
2023/07/25 03:03:28;;;;;;;7.20;4.53;;;14.90;99.90;;;;;;5056917;28;20611;-72
2023/07/25 03:05:54;;;;;;;5.40;3.90;;;14.90;99.90;;;;;;5060557;28;20513;-72
2023/07/25 03:08:19;;;;;;;5.63;4.00;;;14.80;99.90;;;;;;5049373;28;20559;-71
2023/07/25 03:10:45;;;;;;;4.17;3.60;;;14.70;99.90;;;;;;5048352;28;20170;-72
2023/07/25 03:13:11;;;;;;;6.60;3.97;;;14.70;99.90;;;;;;5048232;28;20174;-72
2023/07/25 03:15:36;;;;;;;4.50;4.03;;;14.70;99.90;;;;;;5047283;28;20180;-72
2023/07/25 03:18:02;;;;;;;4.33;3.93;;;14.70;99.90;;;;;;5048331;28;20752;-72
2023/07/25 03:20:28;;;;;;;4.20;3.60;;;14.70;99.90;;;;;;5048153;28;20232;-72
2023/07/25 03:22:55;;;;;;;4.90;3.27;;;14.60;99.90;;;;;;5046657;28;20192;-72
2023/07/25 03:25:20;;;;;;;4.80;4.10;;;14.50;99.90;;;;;;5047381;28;20185;-72
2023/07/25 03:27:46;;;;;;;4.33;3.67;;;14.50;99.90;;;;;;5047698;28;20456;-72
2023/07/25 03:30:12;;;;;;;4.80;3.90;;;14.50;99.90;;;;;;5074297;28;20176;-72
2023/07/25 03:32:37;;;;;;;6.00;4.27;;;14.40;99.90;;;;;;5086764;28;20176;-72
2023/07/25 03:35:03;;;;;;;8.17;4.30;;;14.40;99.90;;;;;;5087351;28;20433;-72
2023/07/25 03:37:29;;;;;;;4.27;3.87;;;14.40;99.90;;;;;;5087060;28;20200;-72
2023/07/25 03:39:55;;;;;;;4.30;3.20;;;14.40;99.90;;;;;;5087782;28;20745;-72
2023/07/25 03:42:21;;;;;;;4.20;3.80;;;14.40;99.90;;;;;;5088107;28;20270;-72
2023/07/25 03:44:47;;;;;;;6.90;3.53;;;14.30;99.90;;;;;;5083006;28;20184;-72
2023/07/25 03:47:12;;;;;;;7.13;3.80;;;14.30;99.90;;;;;;5067889;28;20672;-72
2023/07/25 03:49:38;;;;;;;4.20;3.53;;;14.30;99.90;;;;;;5067810;28;20502;-72
2023/07/25 03:52:04;;;;;;;4.20;3.80;;;14.20;99.90;;;;;;5067496;28;20166;-73
2023/07/25 03:54:30;;;;;;;6.17;4.03;;;14.20;99.90;;;;;;5067224;28;20197;-72
2023/07/25 03:56:56;;;;;;;9.70;4.87;;;14.20;99.90;;;;;;5067419;28;20427;-72
2023/07/25 03:59:21;;;;;;;4.97;4.43;;;14.20;99.90;;;;;;5066582;28;20208;-72
2023/07/25 04:01:47;;;;;;;5.93;4.50;;;14.20;99.90;;;;;;5067687;28;20211;-72
2023/07/25 04:04:13;;;;;;;7.37;4.40;;;14.20;99.90;;;;;;5067181;28;20566;-72
2023/07/25 04:06:38;;;;;;;6.40;4.63;;;14.20;99.90;;;;;;5065214;28;20284;-72
2023/07/25 04:09:04;;;;;;;7.90;4.37;;;14.20;99.90;;;;;;5067377;28;20834;-72
2023/07/25 04:11:30;;;;;;;6.47;4.50;;;14.30;99.90;;;;;;5067615;28;20173;-72
2023/07/25 04:13:56;;;;;;;5.07;4.57;;;14.30;99.90;;;;;;5067195;28;20779;-72
2023/07/25 04:16:22;;;;;;;8.80;4.97;;;14.40;99.90;;;;;;5066895;28;20211;-72
2023/07/25 04:18:48;;;;;;;4.50;3.90;;;14.50;99.90;;;;;;5067587;28;20450;-72
2023/07/25 04:21:14;;;;;;;6.10;4.57;;;14.60;99.90;;;;;;5067141;28;20259;-72
2023/07/25 04:23:40;;;;;;;8.17;4.60;;;14.60;99.90;;;;;;5067291;28;20502;-72
2023/07/25 04:26:05;;;;;;;4.77;4.23;;;14.60;99.90;;;;;;5066946;28;20419;-72
2023/07/25 04:28:31;;;;;;;4.97;4.47;;;14.60;99.90;;;;;;5065834;28;20232;-72
2023/07/25 04:30:57;;;;;;;5.30;4.40;;;14.60;99.90;;;;;;5086841;28;20173;-72
2023/07/25 04:33:22;;;;;;;5.20;4.80;;;14.60;99.90;;;;;;5087354;28;20169;-72
2023/07/25 04:35:48;;;;;;;4.40;3.90;;;14.60;99.90;;;;;;5086768;28;20744;-72
2023/07/25 04:38:14;;;;;;;9.90;4.70;;;14.60;99.90;;;;;;5087368;28;20624;-72
2023/07/25 04:40:41;;;;;;;9.03;4.40;;;14.60;99.90;;;;;;5085988;28;20666;-72
2023/07/25 04:43:07;;;;;;;5.60;4.53;;;14.60;99.90;;;;;;5087580;28;20422;-72
2023/07/25 04:45:33;;;;;;;6.00;4.70;;;14.60;99.90;;;;;;5073632;28;20427;-72
2023/07/25 04:47:58;;;;;;;11.13;5.30;;;14.60;99.90;;;;;;5061541;28;20236;-73
2023/07/25 04:50:24;;;;;;;5.13;4.60;;;14.70;99.90;;;;;;5063765;28;20239;-73
2023/07/25 04:52:49;;;;;;;7.07;5.20;;;14.60;99.90;;;;;;5066149;28;20189;-72
2023/07/25 04:55:15;;;;;;;6.60;5.23;;;14.60;99.90;;;;;;5069657;28;20250;-73
2023/07/25 04:57:41;;;;;;;5.03;4.53;;;14.60;99.90;;;;;;5070670;28;20200;-73
2023/07/25 05:00:07;;;;;;;5.60;4.50;;;14.60;99.90;;;;;;5069496;28;20205;-72
2023/07/25 05:02:33;;;;;;;5.60;4.67;;;14.50;99.90;;;;;;5070703;28;20173;-72
2023/07/25 05:04:58;;;;;;;6.03;4.40;;;14.60;99.90;;;;;;5069709;28;20439;-72
2023/07/25 05:07:24;;;;;;;5.47;4.70;;;14.50;99.90;;;;;;5070543;28;20212;-73
2023/07/25 05:09:50;;;;;;;5.20;4.70;;;14.60;99.90;;;;;;5070373;28;20235;-73
2023/07/25 05:12:16;;;;;;;5.40;4.60;;;14.60;99.90;;;;;;5070690;28;20545;-73
2023/07/25 05:14:41;;;;;;;6.27;5.30;;;14.50;99.90;;;;;;5069856;28;20235;-72
2023/07/25 05:17:07;;;;;;;6.90;5.53;;;14.60;99.90;;;;;;5070271;28;20421;-72
2023/07/25 05:19:33;;;;;;;7.70;5.30;;;14.60;99.90;;;;;;5070387;28;20676;-72
2023/07/25 05:21:59;;;;;;;6.83;6.03;;;14.50;99.90;;;;;;5070144;28;20193;-72
2023/07/25 05:24:25;;;;;;;5.97;5.40;;;14.50;99.90;;;;;;5069900;28;20180;-73
2023/07/25 05:26:51;;;;;;;9.67;6.40;;;14.60;99.90;;;;;;5069911;28;20208;-72
2023/07/25 05:29:17;;;;;;;12.40;7.40;;;14.60;99.90;;;;;;5069793;28;20451;-73
2023/07/25 05:31:42;;;;;;;8.70;7.47;;;14.60;99.90;;;;;;5067678;28;20185;-73
2023/07/25 05:34:08;;;;;;;9.03;7.20;;;14.70;99.90;;;;;;5069591;28;20266;-73
2023/07/25 05:36:34;;;;;;;11.07;6.13;;;14.70;99.90;;;;;;5069545;28;20737;-73
2023/07/25 05:39:00;;;;;;;7.23;6.53;;;14.80;99.90;;;;;;5070013;28;20407;-73
2023/07/25 05:41:26;;;;;;;7.23;6.53;;;14.90;99.90;;;;;;5069687;28;20412;-73
2023/07/25 05:43:51;;;;;;;7.43;5.87;;;15.00;99.90;;;;;;5063120;28;20276;-73
2023/07/25 05:46:17;;;;;;;8.90;7.40;;;15.00;99.90;;;;;;5064480;28;20439;-73
2023/07/25 05:48:43;;;;;;;8.83;7.90;;;15.00;99.90;;;;;;5066946;28;20210;-72
2023/07/25 05:51:11;;;;;;;9.43;7.77;;;15.10;99.90;;;;;;5069213;28;20173;-73
2023/07/25 05:53:37;;;;;;;8.13;6.20;;;15.10;99.90;;;;;;5049640;28;20184;-73
2023/07/25 05:56:03;;;;;;;8.93;5.90;;;15.10;99.90;;;;;;5056698;28;20807;-72
2023/07/25 05:58:29;;;;;;;6.13;5.50;;;15.20;99.90;;;;;;5068177;28;20676;-72
2023/07/25 06:00:55;;;;;;;6.93;5.73;;;15.30;99.90;;;;;;5068350;28;20592;-72
2023/07/25 06:03:21;;;;;;;12.33;6.67;;;15.50;99.90;;;;;;5069227;28;20435;-72
2023/07/25 06:05:47;;;;;;;6.57;4.80;;;15.60;99.90;;;;;;5068886;28;20194;-73
2023/07/25 06:08:13;;;;;;;6.70;5.07;;;15.80;99.90;;;;;;5068405;28;20471;-72
2023/07/25 06:10:39;;;;;;;8.27;4.77;;;16.00;99.90;;;;;;5069190;28;20177;-72
2023/07/25 06:13:06;;;;;;;7.60;4.37;;;16.30;99.90;;;;;;5070044;28;20705;-72
2023/07/25 06:15:35;;;;;;;7.70;4.20;;;16.60;99.90;;;;;;5068149;28;20416;-71
2023/07/25 06:18:04;;;;;;;8.63;4.43;;;16.80;99.90;;;;;;5049145;28;20454;-72
2023/07/25 06:20:33;;;;;;;5.97;3.87;;;17.00;99.90;;;;;;5052927;28;20435;-72
2023/07/25 06:23:00;;;;;;;5.83;3.70;;;17.20;99.90;;;;;;5063113;28;20530;-72
2023/07/25 06:25:26;;;;;;;6.47;3.27;;;17.30;99.90;;;;;;5066472;28;20863;-72
2023/07/25 06:27:52;;;;;;;3.73;3.00;;;17.20;99.90;;;;;;5066941;28;20546;-72
2023/07/25 06:30:18;;;;;;;8.07;4.00;;;17.10;99.90;;;;;;5067303;28;20550;-71
2023/07/25 06:32:44;;;;;;;2.83;2.57;;;16.80;99.90;;;;;;5067362;28;20423;-71
2023/07/25 06:35:09;;;;;;;7.73;2.70;;;16.60;99.90;;;;;;5067457;28;20611;-72
2023/07/25 06:37:36;;;;;;;5.40;3.50;;;16.50;99.90;;;;;;5067453;28;20228;-72
2023/07/25 06:40:03;;;;;;;5.10;3.10;;;16.40;99.90;;;;;;5069048;28;20169;-72
2023/07/25 06:42:29;;;;;;;4.70;3.13;;;16.30;99.90;;;;;;5068482;28;20447;-72
2023/07/25 06:44:56;;;;;;;6.57;3.43;;;16.10;99.90;;;;;;5068526;28;20458;-72
2023/07/25 06:47:22;;;;;;;6.87;3.93;;;16.00;99.90;;;;;;5068662;28;20462;-72
2023/07/25 06:49:47;;;;;;;3.70;3.20;;;15.90;99.90;;;;;;5068588;28;20446;-72
2023/07/25 06:52:13;;;;;;;5.73;3.80;;;15.90;99.90;;;;;;5068177;28;20195;-72
2023/07/25 06:54:40;;;;;;;6.07;3.17;;;16.00;99.90;;;;;;5067174;28;20169;-72
2023/07/25 06:57:05;;;;;;;4.27;3.00;;;16.00;99.90;;;;;;5067932;28;20197;-72
2023/07/25 06:59:31;;;;;;;6.27;3.40;;;16.10;99.90;;;;;;5064952;28;20514;-72
2023/07/25 07:01:57;;;;;;;4.57;3.03;;;16.10;99.90;;;;;;5067965;28;20185;-72
2023/07/25 07:04:23;;;;;;;5.63;3.50;;;16.20;99.90;;;;;;5068425;28;20650;-72
2023/07/25 07:06:49;;;;;;;4.60;3.03;;;16.30;99.90;;;;;;5068456;28;20522;-72
2023/07/25 07:09:14;;;;;;;4.07;3.30;;;16.30;99.90;;;;;;5068452;28;20236;-72
2023/07/25 07:11:40;;;;;;;3.83;2.87;;;16.30;99.90;;;;;;5068480;28;20413;-72
2023/07/25 07:14:06;;;;;;;5.83;3.30;;;16.40;99.90;;;;;;5068130;28;20177;-72
2023/07/25 07:16:32;;;;;;;7.33;3.20;;;16.40;99.90;;;;;;5067574;28;20193;-72
2023/07/25 07:18:58;;;;;;;4.23;2.40;;;16.50;99.90;;;;;;5065194;28;20510;-72
2023/07/25 07:21:24;;;;;;;5.10;2.67;;;16.60;99.90;;;;;;5062746;28;20192;-72
2023/07/25 07:23:49;;;;;;;4.80;2.43;;;16.50;99.90;;;;;;5053300;28;20927;-72
2023/07/25 07:26:15;;;;;;;5.30;2.60;;;16.40;99.90;;;;;;5065600;28;20181;-72
2023/07/25 07:28:41;;;;;;;8.30;3.10;;;16.30;99.90;;;;;;5066602;28;20196;-72
2023/07/25 07:31:12;;;;;;;5.43;3.30;;;16.40;99.90;;;;;;5067904;28;20176;-72
2023/07/25 07:33:38;;;;;;;8.87;3.40;;;16.50;99.90;;;;;;5067248;28;20476;-73
2023/07/25 07:36:05;;;;;;;6.97;4.40;;;16.60;99.90;;;;;;5066548;28;20420;-72
2023/07/25 07:38:30;;;;;;;7.17;3.17;;;16.80;99.90;;;;;;5067360;28;20423;-72
2023/07/25 07:40:56;;;;;;;6.40;3.20;;;16.80;99.90;;;;;;5068053;28;20438;-72
2023/07/25 07:43:22;;;;;;;6.87;3.00;;;17.00;99.90;;;;;;5067963;28;20188;-72
2023/07/25 07:45:48;;;;;;;6.00;2.77;;;17.10;99.90;;;;;;5067164;28;20634;-72
2023/07/25 07:48:14;;;;;;;5.87;2.93;;;17.30;99.90;;;;;;5067447;28;20258;-72
2023/07/25 07:50:40;;;;;;;5.87;3.67;;;17.40;99.90;;;;;;5067623;28;20424;-72
2023/07/25 07:53:06;;;;;;;8.60;3.20;;;17.40;99.90;;;;;;5067688;28;20638;-72
2023/07/25 07:55:31;;;;;;;7.17;3.03;;;17.50;99.90;;;;;;5066666;28;20170;-71
2023/07/25 07:57:57;;;;;;;4.73;3.17;;;17.40;99.90;;;;;;5066412;28;20243;-71
2023/07/25 08:00:23;;;;;;;6.60;2.87;;;17.50;99.90;;;;;;5067628;28;20177;-72
2023/07/25 08:02:50;;;;;;;5.33;3.00;;;17.50;99.90;;;;;;5067023;28;20181;-72
2023/07/25 08:05:15;;;;;;;9.00;2.63;;;17.40;99.90;;;;;;5066386;28;20510;-71
2023/07/25 08:07:42;;;;;;;5.07;2.50;;;17.20;99.90;;;;;;5067364;28;20555;-72
2023/07/25 08:10:08;;;;;;;3.60;2.43;;;17.10;99.90;;;;;;5067496;28;20731;-72
2023/07/25 08:12:34;;;;;;;6.23;2.37;;;17.10;99.90;;;;;;5067290;28;20403;-72
2023/07/25 08:15:00;;;;;;;3.83;2.37;;;17.20;99.90;;;;;;5066905;28;20461;-72
2023/07/25 08:17:25;;;;;;;4.40;2.00;;;17.30;99.90;;;;;;5067235;28;20431;-72
2023/07/25 08:19:51;;;;;;;3.90;2.27;;;17.40;99.90;;;;;;5067528;28;20184;-72
2023/07/25 08:22:17;;;;;;;2.67;2.03;;;17.30;99.90;;;;;;5067436;28;20211;-71
2023/07/25 08:24:43;;;;;;;3.60;2.60;;;17.40;99.90;;;;;;5068619;28;20177;-72
2023/07/25 08:27:09;;;;;;;3.20;2.03;;;17.40;99.90;;;;;;5071280;28;20574;-72
2023/07/25 08:29:42;;;;;;;3.73;2.03;;;17.40;99.90;;;;;;5079429;28;20406;-73
2023/07/25 08:32:11;;;;;;;4.23;2.57;;;17.30;99.90;;;;;;5091435;28;20164;-72
2023/07/25 08:34:37;;;;;;;5.53;2.50;;;17.30;99.90;;;;;;5090578;28;20863;-72
2023/07/25 08:37:04;;;;;;;4.83;2.60;;;17.20;99.90;;;;;;5091620;28;20426;-72
2023/07/25 08:39:30;;;;;;;5.47;2.43;;;17.20;99.90;;;;;;5091133;28;20786;-72
2023/07/25 08:41:58;;;;;;;7.70;3.10;;;17.20;99.90;;;;;;5091183;28;20402;-71
2023/07/25 08:44:25;;;;;;;4.10;2.07;;;17.20;99.90;;;;;;5090466;28;20410;-72
2023/07/25 08:46:54;;;;;;;2.50;2.03;;;17.20;99.90;;;;;;5069021;28;20771;-72
2023/07/25 08:49:28;;;;;;;5.50;3.03;;;17.10;99.90;;;;;;5069720;28;20819;-72
2023/07/25 08:51:54;;;;;;;3.53;2.13;;;17.10;99.90;;;;;;5071007;28;20940;-72
2023/07/25 08:54:31;;;;;;;3.73;3.10;;;17.10;99.90;;;;;;5070355;28;20501;-72
2023/07/25 08:56:57;;;;;;;3.70;2.00;;;17.00;99.90;;;;;;5070408;28;20465;-72
2023/07/25 08:59:24;;;;;;;5.17;2.67;;;17.00;99.90;;;;;;5070567;28;20412;-72
2023/07/25 09:01:51;;;;;;;6.47;2.33;;;16.90;99.90;;;;;;5070696;28;20448;-72
2023/07/25 09:04:19;;;;;;;6.00;2.90;;;16.80;99.90;;;;;;5068725;28;20844;-72
2023/07/25 09:06:45;;;;;;;7.17;3.00;;;16.70;99.90;;;;;;5070665;28;20439;-72
2023/07/25 09:09:11;;;;;;;4.77;2.43;;;16.70;99.90;;;;;;5070311;28;20485;-72
2023/07/25 09:11:37;;;;;;;2.90;1.90;;;16.70;99.90;;;;;;5069231;28;20419;-72
2023/07/25 09:14:03;;;;;;;6.80;2.47;;;16.70;99.90;;;;;;5069847;28;20217;-72
2023/07/25 09:16:30;;;;;;;3.07;2.70;;;16.70;99.90;;;;;;5069960;28;20195;-72
2023/07/25 09:18:55;;;;;;;4.10;2.53;;;16.70;99.90;;;;;;5070321;28;20420;-72
2023/07/25 09:21:21;;;;;;;2.70;2.50;;;16.70;99.90;;;;;;5070381;28;20940;-72
2023/07/25 09:23:55;;;;;;;5.60;2.90;;;16.70;99.90;;;;;;5069781;28;20181;-72
2023/07/25 09:26:28;;;;;;;3.90;2.43;;;16.70;99.90;;;;;;5068681;28;20661;-73
2023/07/25 09:28:58;;;;;;;6.30;2.80;;;16.80;99.90;;;;;;5072499;28;20592;-72
2023/07/25 09:31:27;;;;;;;4.60;3.20;;;16.80;99.90;;;;;;5090138;28;20422;-72
2023/07/25 09:33:54;;;;;;;3.27;2.97;;;16.90;99.90;;;;;;5090060;28;20828;-72
2023/07/25 09:36:21;;;;;;;3.13;2.60;;;17.00;99.90;;;;;;5089751;28;20460;-72
2023/07/25 09:38:53;;;;;;;3.00;2.47;;;17.00;99.90;;;;;;5090307;28;20418;-71
2023/07/25 09:41:21;;;;;;;3.50;3.10;;;17.00;99.90;;;;;;5090352;28;20453;-73
2023/07/25 09:43:47;;;;;;;4.10;1.80;;;17.10;99.90;;;;;;5090206;28;20525;-72
2023/07/25 09:46:13;;;;;;;3.90;2.40;;;17.00;99.90;;;;;;5073599;28;20518;-72
2023/07/25 09:48:47;;;;;;;4.20;2.80;;;17.10;99.90;;;;;;5069877;28;20210;-72
2023/07/25 09:51:14;;;;;;;5.10;2.43;;;17.20;99.90;;;;;;5069798;28;20765;-72
2023/07/25 09:53:52;;;;;;;7.40;2.60;;;17.40;99.90;;;;;;5069637;28;20924;-72
2023/07/25 09:56:21;;;;;;;2.80;2.10;;;17.50;99.90;;;;;;5069133;28;20947;-73
2023/07/25 09:58:51;;;;;;;4.60;2.77;;;17.70;99.90;;;;;;5068365;28;20424;-72
2023/07/25 10:01:18;;;;;;;4.90;2.20;;;17.80;99.90;;;;;;5069296;28;20537;-72
2023/07/25 10:03:44;;;;;;;2.47;1.70;;;17.80;99.90;;;;;;5068353;28;20427;-72
2023/07/25 10:06:12;;;;;;;3.70;1.97;;;17.90;99.90;;;;;;5069016;28;20607;-72
2023/07/25 10:08:43;;;;;;;3.67;2.00;;;18.00;99.90;;;;;;5069484;28;20455;-72
2023/07/25 10:11:09;;;;;;;3.50;2.33;;;18.00;99.90;;;;;;5069296;28;20422;-72
2023/07/25 10:13:35;;;;;;;5.37;3.20;;;18.00;99.90;;;;;;5069154;28;20762;-72
2023/07/25 10:16:02;;;;;;;4.83;2.47;;;18.10;99.90;;;;;;5068958;28;20407;-72
2023/07/25 10:18:32;;;;;;;4.20;2.83;;;18.10;99.90;;;;;;5069169;28;20177;-72
2023/07/25 10:20:58;;;;;;;2.47;2.20;;;18.20;99.90;;;;;;5069035;28;20469;-72
2023/07/25 10:23:34;;;;;;;4.07;2.63;;;18.30;99.90;;;;;;5067835;28;20419;-73
2023/07/25 10:26:13;;;;;;;3.40;2.30;;;18.40;99.90;;;;;;5068547;28;20169;-72
2023/07/25 10:28:40;;;;;;;3.77;2.80;;;18.60;99.90;;;;;;5069377;28;20815;-72
2023/07/25 10:31:08;;;;;;;5.23;2.50;;;18.70;99.90;;;;;;5080373;28;20427;-72
2023/07/25 10:33:38;;;;;;;2.70;1.90;;;18.80;99.90;;;;;;5061998;28;20857;-73
2023/07/25 10:36:04;;;;;;;4.70;2.30;;;18.80;99.90;;;;;;5064606;28;20431;-72
2023/07/25 10:38:34;;;;;;;2.90;2.17;;;18.70;99.90;;;;;;5060920;28;20435;-72
2023/07/25 10:41:08;;;;;;;4.70;2.43;;;18.70;99.90;;;;;;5059210;28;20423;-72
2023/07/25 10:43:48;;;;;;;3.63;2.40;;;18.60;99.90;;;;;;5062444;28;20423;-72
2023/07/25 10:46:19;;;;;;;5.67;2.90;;;18.50;99.90;;;;;;5067240;28;21142;-72
2023/07/25 10:49:16;;;;;;;7.40;3.07;;;18.30;99.90;;;;;;5060271;28;20951;-72
2023/07/25 10:51:46;;;;;;;2.77;2.43;;;18.20;99.90;;;;;;5054135;28;20416;-72
2023/07/25 10:54:17;;;;;;;2.73;2.30;;;18.00;99.90;;;;;;5063730;28;20423;-73
2023/07/25 10:57:17;;;;;;;5.70;3.17;;;17.90;99.90;;;;;;5062030;28;20880;-73
2023/07/25 11:00:00;;;;;;;5.27;2.80;;;17.90;99.90;;;;;;5059487;28;20416;-72
2023/07/25 11:02:34;;;;;;;4.53;3.03;;;17.80;99.90;;;;;;5059690;28;20419;-73
2023/07/25 11:05:27;;;;;;;4.17;2.97;;;17.80;99.90;;;;;;5058252;28;20481;-72
2023/07/25 11:07:54;;;;;;;3.77;2.80;;;17.80;99.90;;;;;;5060092;28;21058;-72
2023/07/25 11:10:28;;;;;;;4.27;2.97;;;17.80;99.90;;;;;;5066958;28;20474;-72
2023/07/25 11:12:57;;;;;;;3.73;2.40;;;17.60;99.90;;;;;;5058529;28;20424;-72
2023/07/25 11:15:23;;;;;;;5.77;3.10;;;17.60;99.90;;;;;;5064328;28;20505;-73
2023/07/25 11:17:49;;;;;;;5.47;2.77;;;17.60;99.90;;;;;;5055481;28;20578;-72
2023/07/25 11:20:17;;;;;;;4.83;2.70;;;17.70;99.90;;;;;;5063836;28;20871;-72
2023/07/25 11:22:43;;;;;;;5.07;2.93;;;17.70;99.90;;;;;;5061617;28;20767;-72
2023/07/25 11:25:09;;;;;;;5.53;3.27;;;17.60;99.90;;;;;;5063363;28;20561;-73
2023/07/25 11:27:45;;;;;;;12.33;2.67;;;17.60;99.90;;;;;;5059108;28;20542;-72
2023/07/25 11:30:15;;;;;;;7.50;2.87;;;17.70;99.90;;;;;;5069481;28;20430;-71
2023/07/25 11:32:49;;;;;;;6.20;2.87;;;17.90;99.90;;;;;;5064883;28;20423;-72
2023/07/25 11:35:15;;;;;;;4.60;2.50;;;18.20;99.90;;;;;;5064829;28;20561;-72
2023/07/25 11:37:59;;;;;;;3.30;2.37;;;18.40;99.90;;;;;;5061927;28;20451;-73
2023/07/25 11:40:27;;;;;;;4.70;2.80;;;18.80;99.90;;;;;;5063468;28;20785;-72
2023/07/25 11:42:53;;;;;;;3.70;2.63;;;19.00;99.90;;;;;;5063265;28;20422;-72
2023/07/25 11:45:20;;;;;;;4.63;3.23;;;19.10;99.90;;;;;;5062815;28;20438;-72
2023/07/25 11:47:48;;;;;;;5.97;2.70;;;19.00;99.90;;;;;;5065243;28;20250;-72
2023/07/25 11:50:15;;;;;;;3.23;2.23;;;18.90;99.90;;;;;;5062271;28;20419;-71
2023/07/25 11:52:44;;;;;;;7.37;2.60;;;18.70;99.90;;;;;;5064112;28;20422;-72
2023/07/25 11:55:12;;;;;;;3.83;2.60;;;18.60;99.90;;;;;;5059323;28;20434;-72
2023/07/25 11:57:41;;;;;;;7.03;2.50;;;18.40;99.90;;;;;;5062775;28;20442;-72
2023/07/25 12:00:11;;;;;;;4.60;2.60;;;18.30;99.90;;;;;;5060056;28;20860;-72
2023/07/25 12:02:40;;;;;;;2.77;2.50;;;18.10;99.90;;;;;;5064711;28;20425;-72
2023/07/25 12:05:08;;;;;;;3.00;2.67;;;18.00;99.90;;;;;;5060116;28;20432;-72
2023/07/25 12:07:52;;;;;;;4.63;2.57;;;17.90;99.90;;;;;;5071082;28;20829;-72
2023/07/25 12:10:27;;;;;;;5.03;2.70;;;17.80;99.90;;;;;;5066364;28;20427;-72
2023/07/25 12:12:54;;;;;;;3.40;2.57;;;17.80;99.90;;;;;;5062985;28;20418;-72
2023/07/25 12:15:21;;;;;;;3.70;2.47;;;17.70;99.90;;;;;;5064730;28;20415;-72
2023/07/25 12:17:47;;;;;;;4.60;2.57;;;17.70;99.90;;;;;;5061439;28;20580;-72
2023/07/25 12:20:18;;;;;;;7.03;3.30;;;17.60;99.90;;;;;;5063557;28;20519;-72
2023/07/25 12:22:45;;;;;;;2.90;2.53;;;17.60;99.90;;;;;;5067944;28;20185;-72
2023/07/25 12:25:14;;;;;;;3.90;3.47;;;17.70;99.90;;;;;;5061278;28;20522;-71
2023/07/25 12:27:52;;;;;;;6.67;3.20;;;17.70;99.90;;;;;;5065598;28;20479;-72
2023/07/25 12:30:17;;;;;;;3.37;2.53;;;17.70;99.90;;;;;;5072822;28;20423;-72
2023/07/25 12:32:43;;;;;;;7.57;2.70;;;17.80;99.90;;;;;;5063423;28;20425;-72
2023/07/25 12:35:10;;;;;;;6.40;2.70;;;17.80;99.90;;;;;;5062640;28;20212;-72
2023/07/25 12:37:36;;;;;;;4.73;2.90;;;17.80;99.90;;;;;;5062613;28;20369;-72
2023/07/25 12:40:02;;;;;;;4.80;2.67;;;17.80;99.90;;;;;;5061317;28;20420;-72
2023/07/25 12:42:27;;;;;;;7.50;2.87;;;17.90;99.90;;;;;;5069877;28;20211;-72
2023/07/25 12:44:57;;;;;;;4.30;2.90;;;17.90;99.90;;;;;;5064668;28;20189;-71